Time;durP1;ratioP1;P1;durP2;ratioP2;P2;SDS_P1;SDS_P2;PMS_P1;PMS_P2;Temp;Humidity;BMP_temperature;BMP_pressure;BME280_temperature;BME280_humidity;BME280_pressure;Samples;Min_cycle;Max_cycle;Signal;HPM_P1;HPM_P2
2021/12/02 00:00:09;;;;;;;5.17;1.67;;;;;;;3.12;100.00;99713.53;2064993;28;20054;-66
2021/12/02 00:01:11;;;;;;;6.45;1.70;;;;;;;3.06;100.00;99709.41;2073583;28;20058;-67
2021/12/02 00:02:11;;;;;;;;;;;;;;;3.04;100.00;99706.03;2074146;28;20125;-66
2021/12/02 00:03:12;;;;;;;4.93;1.63;;;;;;;3.04;100.00;99711.19;2073655;28;19916;-66
2021/12/02 00:04:12;;;;;;;8.27;2.17;;;;;;;3.02;100.00;99710.41;2073598;28;20096;-67
2021/12/02 00:05:12;;;;;;;9.33;2.67;;;;;;;2.98;100.00;99716.53;2073652;28;20028;-67
2021/12/02 00:06:16;;;;;;;6.63;1.57;;;;;;;2.94;100.00;99717.47;2073641;28;20030;-66
2021/12/02 00:07:16;;;;;;;8.25;1.70;;;;;;;2.93;100.00;99718.38;2073625;28;20025;-66
2021/12/02 00:08:17;;;;;;;8.83;1.77;;;;;;;2.95;100.00;99716.63;2073591;28;20390;-66
2021/12/02 00:09:17;;;;;;;7.90;2.00;;;;;;;2.98;100.00;99716.53;2073696;28;20080;-66
2021/12/02 00:10:17;;;;;;;7.20;1.80;;;;;;;3.00;100.00;99725.03;2073667;28;20338;-66
2021/12/02 00:11:19;;;;;;;3.53;1.43;;;;;;;3.02;100.00;99717.28;2073608;28;20026;-66
2021/12/02 00:12:19;;;;;;;;;;;;;;;3.07;100.00;99717.97;2074054;28;20499;-66
2021/12/02 00:13:24;;;;;;;5.20;1.45;;;;;;;3.07;100.00;99725.69;2073621;28;20024;-66
2021/12/02 00:14:26;;;;;;;5.75;1.60;;;;;;;3.08;100.00;99720.50;2064853;28;20470;-66
2021/12/02 00:15:35;;;;;;;5.53;1.40;;;;;;;3.09;100.00;99724.75;2065160;28;20057;-66
2021/12/02 00:16:41;;;;;;;6.60;2.00;;;;;;;3.14;100.00;99726.38;2073581;28;20025;-66
2021/12/02 00:17:51;;;;;;;9.55;1.90;;;;;;;3.15;100.00;99728.06;2064799;28;20077;-67
2021/12/02 00:21:30;;;;;;;3.97;1.48;;;;;;;3.21;100.00;99730.44;2073483;28;20475;-66
2021/12/02 00:22:33;;;;;;;4.97;1.55;;;;;;;3.20;100.00;99731.34;2073604;28;20041;-65
2021/12/02 00:23:44;;;;;;;3.97;1.25;;;;;;;3.18;100.00;99733.16;2073604;28;20029;-66
2021/12/02 00:24:47;;;;;;;5.43;1.40;;;;;;;3.13;100.00;99733.28;2064834;28;20077;-65
2021/12/02 00:25:49;;;;;;;11.70;1.60;;;;;;;3.13;100.00;99720.38;2065112;28;20395;-66
2021/12/02 00:26:52;;;;;;;3.63;1.02;;;;;;;3.15;100.00;99730.66;2073561;28;20036;-66
2021/12/02 00:27:54;;;;;;;4.72;1.35;;;;;;;3.14;100.00;99734.09;2073499;28;20014;-66
2021/12/02 00:28:56;;;;;;;7.53;1.50;;;;;;;3.13;100.00;99729.84;2073494;28;20612;-66
2021/12/02 00:29:58;;;;;;;9.00;1.67;;;;;;;3.08;100.00;99732.56;2064759;28;20084;-66
2021/12/02 00:31:00;;;;;;;7.00;1.27;;;;;;;3.05;100.00;99732.66;2065076;28;20102;-67
2021/12/02 00:32:07;;;;;;;5.38;1.23;;;;;;;3.01;100.00;99737.03;2073534;28;20105;-66
2021/12/02 00:33:07;;;;;;;7.00;1.55;;;;;;;3.02;100.00;99728.44;2073563;28;20117;-66
2021/12/02 00:34:09;;;;;;;4.25;1.50;;;;;;;3.01;100.00;99731.88;2073540;28;20445;-67
2021/12/02 00:35:09;;;;;;;8.13;2.10;;;;;;;2.99;100.00;99727.66;2073493;28;20037;-66
2021/12/02 00:36:11;;;;;;;4.07;0.83;;;;;;;2.96;100.00;99728.59;2064833;28;20468;-66
2021/12/02 00:37:11;;;;;;;4.28;0.98;;;;;;;2.97;100.00;99730.28;2064878;28;20398;-66
2021/12/02 00:38:13;;;;;;;3.77;0.77;;;;;;;2.96;100.00;99729.47;2064724;28;20028;-66
2021/12/02 00:39:19;;;;;;;6.28;1.40;;;;;;;2.97;100.00;99730.28;2064918;28;20058;-66
2021/12/02 00:40:19;;;;;;;5.85;1.02;;;;;;;2.98;100.00;99729.41;2064697;28;20466;-67
2021/12/02 00:41:25;;;;;;;3.57;1.00;;;;;;;3.00;100.00;99724.19;2064626;28;20053;-67
2021/12/02 00:42:26;;;;;;;5.82;1.17;;;;;;;2.99;100.00;99718.22;2073549;28;20036;-67
2021/12/02 00:43:28;;;;;;;8.77;1.70;;;;;;;2.98;100.00;99725.97;2073349;28;20088;-67
2021/12/02 00:44:31;;;;;;;4.60;1.27;;;;;;;2.95;100.00;99722.59;2073484;28;20018;-67
2021/12/02 00:45:32;;;;;;;8.65;1.45;;;;;;;2.94;100.00;99720.06;2073448;28;20053;-66
2021/12/02 00:46:33;;;;;;;3.92;1.23;;;;;;;2.93;100.00;99723.53;2073559;28;20026;-66
2021/12/02 00:47:36;;;;;;;4.57;1.85;;;;;;;2.93;100.00;99718.38;2073438;28;20085;-66
2021/12/02 00:48:37;;;;;;;5.40;1.70;;;;;;;2.94;100.00;99722.63;2073428;28;20033;-66
2021/12/02 00:49:39;;;;;;;5.15;1.52;;;;;;;2.92;100.00;99712.41;2073455;28;20045;-66
2021/12/02 00:50:45;;;;;;;9.35;1.45;;;;;;;2.92;100.00;99720.13;2073469;28;20040;-67
2021/12/02 00:51:52;;;;;;;4.68;1.58;;;;;;;2.92;100.00;99714.97;2064641;28;20018;-66
2021/12/02 00:52:55;;;;;;;6.20;1.40;;;;;;;2.93;100.00;99718.38;2065557;28;20430;-67
2021/12/02 00:54:00;;;;;;;5.20;1.42;;;;;;;2.94;100.00;99720.06;2073484;28;20057;-66
2021/12/02 00:55:02;;;;;;;6.65;1.25;;;;;;;2.92;100.00;99714.13;2073473;28;20049;-66
2021/12/02 00:56:05;;;;;;;8.35;1.50;;;;;;;2.91;100.00;99715.00;2074107;28;20105;-66
2021/12/02 00:57:08;;;;;;;5.45;1.42;;;;;;;2.90;100.00;99716.72;2066194;28;20084;-66
2021/12/02 00:58:11;;;;;;;6.57;2.13;;;;;;;2.88;100.00;99720.25;2066556;28;20485;-66
2021/12/02 00:59:11;;;;;;;3.63;1.00;;;;;;;2.87;100.00;99719.38;2075083;28;20075;-66
2021/12/02 01:00:12;;;;;;;3.50;1.10;;;;;;;2.88;100.00;99721.09;2075084;28;20072;-67
2021/12/02 01:01:14;;;;;;;9.93;1.73;;;;;;;2.87;100.00;99721.16;2075041;28;20029;-66
2021/12/02 01:02:15;;;;;;;6.70;1.48;;;;;;;2.87;100.00;99721.97;2075081;28;20061;-66
2021/12/02 01:03:16;;;;;;;6.05;1.73;;;;;;;2.87;100.00;99718.56;2075027;28;20475;-66
2021/12/02 01:04:22;;;;;;;3.38;1.17;;;;;;;2.87;100.00;99719.38;2075028;28;20118;-66
2021/12/02 01:05:23;;;;;;;3.65;1.20;;;;;;;2.88;100.00;99715.09;2074968;28;20030;-66
2021/12/02 01:06:24;;;;;;;5.50;1.42;;;;;;;2.91;100.00;99715.00;2066284;28;20117;-66
2021/12/02 01:07:24;;;;;;;4.45;1.50;;;;;;;2.93;100.00;99715.78;2066363;28;20030;-66
2021/12/02 01:08:26;;;;;;;8.37;1.50;;;;;;;2.94;100.00;99709.75;2066181;28;20030;-66
2021/12/02 01:09:26;;;;;;;7.18;1.38;;;;;;;2.96;100.00;99719.16;2066373;28;20026;-66
2021/12/02 01:10:26;;;;;;;5.97;1.77;;;;;;;2.96;100.00;99714.00;2075095;28;20030;-66
2021/12/02 01:11:27;;;;;;;8.70;1.80;;;;;;;2.95;100.00;99721.75;2074983;28;20448;-66
2021/12/02 01:12:27;;;;;;;4.37;0.90;;;;;;;2.94;100.00;99715.75;2074958;28;20037;-66
2021/12/02 01:13:27;;;;;;;5.53;1.77;;;;;;;2.94;100.00;99720.91;2074868;28;20029;-66
2021/12/02 01:14:28;;;;;;;4.20;1.30;;;;;;;2.95;100.00;99716.63;2074965;28;20076;-66
2021/12/02 01:15:28;;;;;;;3.03;1.23;;;;;;;2.94;100.00;99720.91;2074976;28;20471;-66
2021/12/02 01:16:29;;;;;;;4.53;1.30;;;;;;;2.95;100.00;99721.75;2066196;28;20022;-67
2021/12/02 01:17:29;;;;;;;7.50;1.55;;;;;;;2.98;100.00;99728.56;2066178;28;20022;-65
2021/12/02 01:18:29;;;;;;;5.47;1.40;;;;;;;3.01;100.00;99731.06;2074912;28;20061;-66
2021/12/02 01:19:30;;;;;;;4.93;1.27;;;;;;;3.04;100.00;99734.38;2066146;28;20046;-66
2021/12/02 01:20:32;;;;;;;4.10;1.00;;;;;;;3.06;100.00;99734.34;2058102;28;20125;-66
2021/12/02 01:21:35;;;;;;;6.43;1.30;;;;;;;3.07;100.00;99736.88;2065985;28;20096;-66
2021/12/02 01:22:37;;;;;;;5.38;1.27;;;;;;;3.07;100.00;99723.97;2066527;28;20121;-66
2021/12/02 01:23:39;;;;;;;3.70;1.02;;;;;;;3.06;100.00;99722.31;2074938;28;20021;-66
2021/12/02 01:24:42;;;;;;;11.77;1.95;;;;;;;3.04;100.00;99716.34;2074930;28;20037;-66
2021/12/02 01:25:47;;;;;;;5.05;1.33;;;;;;;3.03;100.00;99713.78;2066099;28;20149;-67
2021/12/02 01:26:51;;;;;;;3.50;1.10;;;;;;;3.05;100.00;99722.34;2066843;28;20018;-67
2021/12/02 01:27:52;;;;;;;5.50;1.02;;;;;;;3.06;100.00;99730.03;2074914;28;20026;-66
2021/12/02 01:28:52;;;;;;;2.70;0.90;;;;;;;3.08;100.00;99728.25;2074946;28;20383;-67
2021/12/02 01:29:52;;;;;;;9.40;1.40;;;;;;;3.08;100.00;99722.25;2066087;28;20474;-66
2021/12/02 01:30:53;;;;;;;5.93;1.10;;;;;;;3.08;100.00;99738.56;2066220;28;20096;-66
2021/12/02 01:32:04;;;;;;;4.57;2.08;;;;;;;3.09;100.00;99729.91;2074968;28;20049;-68
2021/12/02 01:33:06;;;;;;;4.25;1.00;;;;;;;3.08;100.00;99723.09;2074911;28;20046;-66
2021/12/02 01:34:07;;;;;;;;;;;;;;;3.08;100.00;99723.09;2075261;28;20038;-67
2021/12/02 01:35:08;;;;;;;6.43;1.00;;;;;;;3.04;100.00;99729.22;2074864;28;19913;-66
2021/12/02 01:36:09;;;;;;;7.00;0.82;;;;;;;3.00;100.00;99735.34;2074779;28;20376;-67
2021/12/02 01:37:10;;;;;;;;;;;;;;;2.98;100.00;99732.00;2075180;28;20372;-65
2021/12/02 01:38:11;;;;;;;5.43;1.70;;;;;;;2.98;100.00;99736.28;2074814;28;19948;-66
2021/12/02 01:39:11;;;;;;;6.63;1.60;;;;;;;2.95;100.00;99742.38;2074818;28;20036;-67
2021/12/02 01:40:11;;;;;;;3.97;0.93;;;;;;;2.95;100.00;99739.81;2066151;28;20523;-66
2021/12/02 01:41:12;;;;;;;3.07;0.80;;;;;;;2.96;100.00;99737.19;2066039;28;20026;-66
2021/12/02 01:42:22;;;;;;;3.80;0.90;;;;;;;2.93;100.00;99739.84;2074701;28;20447;-66
2021/12/02 01:43:44;;;;;;;4.68;0.80;;;;;;;2.92;100.00;99742.47;2074728;28;20033;-66
2021/12/02 01:44:47;;;;;;;2.08;0.50;;;;;;;2.91;100.00;99740.78;2074722;28;20058;-68
2021/12/02 01:45:48;;;;;;;4.43;0.60;;;;;;;2.89;100.00;99742.53;2074734;28;20029;-67
2021/12/02 01:46:50;;;;;;;4.85;1.05;;;;;;;2.82;100.00;99737.59;2074691;28;20026;-68
2021/12/02 01:47:53;;;;;;;3.22;0.80;;;;;;;2.75;100.00;99743.78;2074712;28;20032;-67
2021/12/02 01:49:04;;;;;;;7.78;1.20;;;;;;;2.68;100.00;99744.84;2074728;28;20370;-66
2021/12/02 01:50:09;;;;;;;4.97;0.80;;;;;;;2.63;100.00;99746.72;2074666;28;20080;-67
2021/12/02 01:51:13;;;;;;;4.38;0.85;;;;;;;2.62;100.00;99739.84;2074781;28;20022;-67
2021/12/02 01:52:14;;;;;;;4.35;0.93;;;;;;;2.58;100.00;99736.50;2074699;28;20036;-67
2021/12/02 01:53:15;;;;;;;4.15;1.17;;;;;;;2.57;100.00;99745.13;2074767;28;20461;-67
2021/12/02 01:54:15;;;;;;;;;;;;;;;2.57;100.00;99727.94;2075164;28;20022;-66
2021/12/02 01:55:17;;;;;;;2.85;0.93;;;;;;;2.57;100.00;99734.84;2074640;28;19910;-67
2021/12/02 01:56:18;;;;;;;4.47;1.10;;;;;;;2.56;100.00;99735.69;2074695;28;20521;-66
2021/12/02 01:57:29;;;;;;;;;;;;;;;2.56;100.00;99738.28;2075096;28;20030;-66
2021/12/02 01:58:35;;;;;;;4.25;1.25;;;;;;;2.54;100.00;99746.03;2074656;28;19910;-68
2021/12/02 01:59:38;;;;;;;2.97;1.30;;;;;;;2.54;100.00;99747.78;2074637;28;20079;-67
2021/12/02 02:00:44;;;;;;;2.78;0.98;;;;;;;2.50;100.00;99741.84;2074662;28;20030;-66
2021/12/02 02:01:48;;;;;;;10.13;1.60;;;;;;;2.49;100.00;99735.03;2074541;28;20109;-66
2021/12/02 02:02:49;;;;;;;3.75;1.20;;;;;;;2.47;100.00;99736.81;2074639;28;20028;-67
2021/12/02 02:03:54;;;;;;;4.73;1.70;;;;;;;2.43;100.00;99737.78;2074681;28;20029;-67
2021/12/02 02:05:02;;;;;;;7.15;1.45;;;;;;;2.41;100.00;99736.97;2074642;28;20383;-67
2021/12/02 02:06:04;;;;;;;2.90;1.08;;;;;;;2.39;100.00;99736.19;2074542;28;20037;-67
2021/12/02 02:07:14;;;;;;;3.88;1.10;;;;;;;2.35;100.00;99737.97;2074623;28;20434;-67
2021/12/02 02:08:21;;;;;;;7.82;1.35;;;;;;;2.33;100.00;99729.44;2073986;28;20087;-67
2021/12/02 02:09:26;;;;;;;3.78;0.90;;;;;;;2.34;100.00;99741.44;2074642;28;20040;-67
2021/12/02 02:10:29;;;;;;;3.78;1.25;;;;;;;2.31;100.00;99737.22;2065874;28;20027;-67
2021/12/02 02:11:30;;;;;;;3.60;1.33;;;;;;;2.29;100.00;99738.97;2066091;28;20093;-67
2021/12/02 02:12:33;;;;;;;4.78;0.90;;;;;;;2.30;100.00;99740.66;2065857;28;20073;-67
2021/12/02 02:13:34;;;;;;;2.95;0.95;;;;;;;2.31;100.00;99742.38;2066111;28;20026;-67
2021/12/02 02:14:35;;;;;;;4.45;1.30;;;;;;;2.27;100.00;99745.91;2074584;28;20159;-67
2021/12/02 02:15:37;;;;;;;2.70;0.80;;;;;;;2.25;100.00;99741.66;2074703;28;20367;-67
2021/12/02 02:16:38;;;;;;;5.97;1.45;;;;;;;2.27;100.00;99739.91;2074560;28;20060;-66
2021/12/02 02:18:20;;;;;;;1.17;0.57;;;;;;;2.31;100.00;99746.66;2074561;28;20391;-66
2021/12/02 02:19:11;;;;;;;7.35;2.25;;;;;;;2.26;100.00;99745.94;2071412;28;20095;-67
2021/12/02 02:20:13;;;;;;;6.82;1.20;;;;;;;2.17;100.00;99747.00;2074544;28;20034;-67
2021/12/02 02:21:17;;;;;;;3.78;1.00;;;;;;;2.11;100.00;99747.16;2065715;28;20037;-67
2021/12/02 02:22:21;;;;;;;4.60;1.00;;;;;;;2.10;100.00;99748.03;2066327;28;20042;-67
2021/12/02 02:23:24;;;;;;;5.93;1.00;;;;;;;2.08;100.00;99752.41;2065703;28;20550;-67
2021/12/02 02:24:24;;;;;;;2.70;0.88;;;;;;;2.09;100.00;99748.94;2066062;28;20073;-67
2021/12/02 02:25:25;;;;;;;4.03;0.93;;;;;;;2.08;100.00;99748.06;2074557;28;20434;-67
2021/12/02 02:26:28;;;;;;;3.07;1.07;;;;;;;2.03;100.00;99748.22;2065863;28;20105;-67
2021/12/02 02:27:28;;;;;;;4.95;1.30;;;;;;;1.99;100.00;99744.00;2066151;28;20026;-67
2021/12/02 02:28:29;;;;;;;3.60;1.10;;;;;;;1.97;100.00;99737.19;2074499;28;20539;-67
2021/12/02 02:29:29;;;;;;;4.70;0.82;;;;;;;1.92;100.00;99750.19;2074367;28;20048;-67
2021/12/02 02:30:30;;;;;;;2.20;1.10;;;;;;;1.89;100.00;99742.53;2074407;28;20104;-67
2021/12/02 02:31:31;;;;;;;3.50;1.23;;;;;;;1.86;100.00;99735.75;2074434;28;20510;-67
2021/12/02 02:32:33;;;;;;;5.45;1.30;;;;;;;1.85;100.00;99734.03;2074210;28;20501;-67
2021/12/02 02:33:37;;;;;;;4.68;0.93;;;;;;;1.85;100.00;99738.34;2074346;28;20097;-67
2021/12/02 02:34:38;;;;;;;1.67;1.02;;;;;;;1.79;100.00;99740.16;2074361;28;20029;-67
2021/12/02 02:35:40;;;;;;;4.07;1.40;;;;;;;1.79;100.00;99739.34;2074425;28;20386;-67
2021/12/02 02:36:51;;;;;;;2.97;1.65;;;;;;;1.82;100.00;99738.44;2074339;28;20058;-67
2021/12/02 02:37:52;;;;;;;1.98;0.75;;;;;;;1.83;100.00;99737.53;2074343;28;20030;-67
2021/12/02 02:38:59;;;;;;;4.27;1.30;;;;;;;1.87;100.00;99737.44;2074408;28;20017;-67
2021/12/02 02:40:05;;;;;;;3.65;1.00;;;;;;;1.90;100.00;99736.50;2074337;28;20109;-67
2021/12/02 02:41:08;;;;;;;3.42;0.98;;;;;;;1.88;100.00;99736.53;2065483;28;20022;-67
2021/12/02 02:42:09;;;;;;;2.40;1.05;;;;;;;1.90;100.00;99728.78;2065824;28;20053;-67
2021/12/02 02:43:12;;;;;;;4.72;1.20;;;;;;;1.91;100.00;99738.19;2074289;28;20169;-67
2021/12/02 02:44:12;;;;;;;3.25;1.00;;;;;;;1.99;100.00;99736.28;2065333;28;20046;-67
2021/12/02 02:45:12;;;;;;;6.05;1.30;;;;;;;2.03;100.00;99748.22;2057495;28;20023;-67
2021/12/02 02:46:25;;;;;;;4.63;1.20;;;;;;;2.08;100.00;99753.22;2065555;28;20022;-66
2021/12/02 02:47:26;;;;;;;2.50;0.80;;;;;;;2.10;100.00;99732.59;2065517;28;20034;-66
2021/12/02 02:48:28;;;;;;;4.45;1.13;;;;;;;2.13;100.00;99745.41;2065701;28;20027;-67
2021/12/02 02:49:28;;;;;;;3.58;1.00;;;;;;;2.13;100.00;99742.81;2074198;28;20101;-66
2021/12/02 02:50:33;;;;;;;3.07;0.93;;;;;;;2.11;100.00;99740.28;2074277;28;20509;-66
2021/12/02 02:51:36;;;;;;;2.42;0.85;;;;;;;2.12;100.00;99738.56;2074400;28;20530;-67
2021/12/02 02:52:36;;;;;;;3.47;0.90;;;;;;;2.06;100.00;99742.13;2074249;28;20048;-67
2021/12/02 02:53:36;;;;;;;4.20;1.00;;;;;;;2.04;100.00;99729.31;2074263;28;20068;-66
2021/12/02 02:54:36;;;;;;;2.87;1.00;;;;;;;2.00;100.00;99737.97;2074222;28;20053;-67
2021/12/02 02:55:37;;;;;;;3.27;1.00;;;;;;;1.92;100.00;99745.06;2065506;28;20030;-67
2021/12/02 02:56:53;;;;;;;1.73;0.80;;;;;;;1.85;100.00;99740.94;2065585;28;20049;-67
2021/12/02 02:58:11;;;;;;;3.83;0.70;;;;;;;1.80;100.00;99741.88;2074154;28;20049;-67
2021/12/02 02:59:32;;;;;;;2.47;0.80;;;;;;;1.74;100.00;99742.03;2074185;28;20030;-67
2021/12/02 03:00:39;;;;;;;2.70;0.82;;;;;;;1.74;100.00;99752.31;2074176;28;20023;-67
2021/12/02 03:02:04;;;;;;;3.70;0.85;;;;;;;1.75;100.00;99743.69;2074058;28;20026;-67
2021/12/02 03:06:03;;;;;;;3.60;0.77;;;;;;;1.86;100.00;99745.19;2074286;28;20076;-66
2021/12/02 03:07:54;;;;;;;5.90;0.98;;;;;;;1.79;100.00;99735.03;2074370;28;20048;-66
2021/12/02 03:09:04;;;;;;;5.22;1.15;;;;;;;1.75;100.00;99743.69;2074135;28;20068;-66
2021/12/02 03:10:13;;;;;;;1.58;0.70;;;;;;;1.73;100.00;99742.91;2074062;28;20026;-67
2021/12/02 03:11:13;;;;;;;4.20;0.82;;;;;;;1.72;100.00;99742.94;2074156;28;20470;-67
2021/12/02 03:12:36;;;;;;;2.53;1.30;;;;;;;1.70;100.00;99748.13;2065374;28;20026;-67
2021/12/02 03:13:47;;;;;;;4.68;0.90;;;;;;;1.64;100.00;99740.56;2060118;28;20041;-67
2021/12/02 03:16:37;;;;;;;;;;;;;;;1.64;100.00;99740.56;2067412;28;20093;-65
2021/12/02 03:17:29;;;;;;;2.67;0.90;;;;;;;1.64;100.00;99730.28;2074092;28;20450;-68
2021/12/02 03:18:29;;;;;;;3.70;1.27;;;;;;;1.66;100.00;99741.34;2074015;28;20066;-67
2021/12/02 03:19:30;;;;;;;6.75;1.00;;;;;;;1.67;100.00;99741.31;2073225;28;20036;-67
2021/12/02 03:20:30;;;;;;;4.80;1.07;;;;;;;1.70;100.00;99737.81;2074014;28;20034;-67
2021/12/02 03:21:31;;;;;;;3.90;1.03;;;;;;;1.77;100.00;99751.38;2073959;28;20053;-66
2021/12/02 03:22:32;;;;;;;4.15;0.90;;;;;;;1.80;100.00;99754.75;2074028;28;20033;-67
2021/12/02 03:23:47;;;;;;;1.33;0.82;;;;;;;1.85;100.00;99748.66;2074088;28;20022;-67
2021/12/02 03:24:47;;;;;;;5.13;0.80;;;;;;;1.89;100.00;99747.69;2074038;28;20045;-67
2021/12/02 03:25:48;;;;;;;4.43;1.00;;;;;;;1.89;100.00;99740.78;2074064;28;20026;-67
2021/12/02 03:26:48;;;;;;;2.53;1.03;;;;;;;1.93;100.00;99746.72;2073993;28;20505;-67
2021/12/02 03:27:49;;;;;;;4.13;0.90;;;;;;;1.95;100.00;99752.66;2074059;28;20025;-67
2021/12/02 03:28:51;;;;;;;3.20;1.07;;;;;;;1.95;100.00;99755.25;2074037;28;20694;-67
2021/12/02 03:29:51;;;;;;;6.45;1.10;;;;;;;1.96;100.00;99751.81;2074010;28;20036;-67
2021/12/02 03:30:52;;;;;;;9.50;1.20;;;;;;;1.95;100.00;99750.09;2073881;28;20383;-66
2021/12/02 03:31:52;;;;;;;3.93;0.97;;;;;;;1.96;100.00;99754.38;2073856;28;20018;-66
2021/12/02 03:32:52;;;;;;;3.30;1.13;;;;;;;1.96;100.00;99756.97;2073841;28;20025;-66
2021/12/02 03:33:53;;;;;;;4.27;1.17;;;;;;;1.97;100.00;99756.06;2073944;28;20481;-66
2021/12/02 03:34:53;;;;;;;3.03;1.20;;;;;;;1.99;100.00;99761.19;2073957;28;20025;-66
2021/12/02 03:35:53;;;;;;;4.33;1.00;;;;;;;2.02;100.00;99771.41;2073933;28;20105;-65
2021/12/02 03:36:54;;;;;;;1.67;1.07;;;;;;;2.04;100.00;99770.47;2074076;28;20026;-66
2021/12/02 03:37:54;;;;;;;3.53;1.02;;;;;;;2.05;100.00;99766.16;2073994;28;20018;-66
2021/12/02 03:38:55;;;;;;;5.23;1.43;;;;;;;2.06;100.00;99765.31;2074037;28;20037;-65
2021/12/02 03:39:55;;;;;;;4.47;1.15;;;;;;;2.06;100.00;99768.69;2073965;28;20076;-65
2021/12/02 03:40:55;;;;;;;4.07;0.93;;;;;;;2.10;100.00;99776.34;2073963;28;20542;-67
2021/12/02 03:41:57;;;;;;;13.10;1.47;;;;;;;2.11;100.00;99770.31;2073807;28;20471;-65
2021/12/02 03:42:58;;;;;;;4.25;1.10;;;;;;;2.09;100.00;99764.38;2073792;28;20497;-66
2021/12/02 03:43:58;;;;;;;4.15;0.90;;;;;;;2.09;100.00;99777.25;2073790;28;20040;-65
2021/12/02 03:44:58;;;;;;;4.10;0.80;;;;;;;2.09;100.00;99766.94;2073846;28;20102;-67
2021/12/02 03:45:58;;;;;;;6.63;1.23;;;;;;;2.10;100.00;99773.78;2065191;28;20026;-66
2021/12/02 03:47:00;;;;;;;2.07;0.80;;;;;;;2.09;100.00;99777.25;2065102;28;20049;-66
2021/12/02 03:48:00;;;;;;;6.88;1.08;;;;;;;2.09;100.00;99772.94;2065213;28;20022;-66
2021/12/02 03:49:01;;;;;;;4.03;0.83;;;;;;;2.09;100.00;99774.66;2073908;28;20497;-66
2021/12/02 03:50:01;;;;;;;2.72;0.80;;;;;;;2.11;100.00;99780.63;2073806;28;20137;-65
2021/12/02 03:51:06;;;;;;;3.90;1.10;;;;;;;2.14;100.00;99785.69;2073799;28;20487;-65
2021/12/02 03:52:06;;;;;;;5.07;1.42;;;;;;;2.17;100.00;99778.75;2065023;28;20034;-65
2021/12/02 03:53:07;;;;;;;2.17;0.80;;;;;;;2.16;100.00;99791.66;2065036;28;20061;-65
2021/12/02 03:54:07;;;;;;;5.70;0.80;;;;;;;2.09;100.00;99783.22;2065117;28;20101;-65
2021/12/02 03:55:08;;;;;;;3.50;0.53;;;;;;;2.02;100.00;99781.69;2073708;28;20034;-65
2021/12/02 03:56:08;;;;;;;1.77;1.20;;;;;;;1.97;100.00;99783.53;2073797;28;20132;-66
2021/12/02 03:57:08;;;;;;;1.83;0.63;;;;;;;1.93;100.00;99780.19;2073833;28;20584;-67
2021/12/02 03:58:09;;;;;;;6.10;1.17;;;;;;;1.92;100.00;99774.19;2073809;28;20280;-66
2021/12/02 03:59:09;;;;;;;6.77;1.20;;;;;;;1.91;100.00;99764.78;2064996;28;20366;-66
2021/12/02 04:00:10;;;;;;;2.67;0.80;;;;;;;1.90;100.00;99767.38;2065026;28;20018;-66
2021/12/02 04:01:11;;;;;;;2.10;0.80;;;;;;;1.89;100.00;99770.84;2065054;28;20034;-66
2021/12/02 04:02:12;;;;;;;3.20;1.00;;;;;;;1.87;100.00;99763.16;2073693;28;20300;-66
2021/12/02 04:03:12;;;;;;;4.00;0.70;;;;;;;1.85;100.00;99769.22;2073774;28;20049;-66
2021/12/02 04:04:12;;;;;;;3.93;0.80;;;;;;;1.82;100.00;99761.59;2073705;28;20125;-66
2021/12/02 04:05:13;;;;;;;1.23;0.50;;;;;;;1.78;100.00;99764.22;2073748;28;20083;-67
2021/12/02 04:06:14;;;;;;;4.20;1.07;;;;;;;1.78;100.00;99753.94;2073632;28;20104;-66
2021/12/02 04:07:18;;;;;;;;;;;;;;;1.74;100.00;99762.59;2074020;28;20036;-66
2021/12/02 04:08:19;;;;;;;3.00;0.50;;;;;;;1.73;100.00;99757.47;2073732;28;19992;-67
2021/12/02 04:09:21;;;;;;;1.83;0.95;;;;;;;1.72;100.00;99756.66;2073668;28;20376;-67
2021/12/02 04:10:22;;;;;;;3.10;0.52;;;;;;;1.72;100.00;99754.09;2073690;28;20486;-66
2021/12/02 04:11:35;;;;;;;1.60;0.45;;;;;;;1.71;100.00;99759.25;2073695;28;20083;-66
2021/12/02 04:15:10;;;;;;;5.30;0.75;;;;;;;1.71;100.00;99754.13;2073717;28;20075;-66
2021/12/02 04:16:15;;;;;;;3.05;0.65;;;;;;;1.71;100.00;99754.94;2073631;28;20030;-66
2021/12/02 04:17:18;;;;;;;3.88;0.80;;;;;;;1.72;100.00;99756.66;2064892;28;20089;-66
2021/12/02 04:18:18;;;;;;;1.52;0.55;;;;;;;1.74;100.00;99756.63;2065174;28;20026;-66
2021/12/02 04:19:20;;;;;;;2.40;0.80;;;;;;;1.75;100.00;99748.84;2073572;28;20487;-66
2021/12/02 04:20:23;;;;;;;4.05;0.75;;;;;;;1.77;100.00;99761.69;2073557;28;20108;-66
2021/12/02 04:21:23;;;;;;;5.95;1.30;;;;;;;1.80;100.00;99765.03;2073521;28;20033;-66
2021/12/02 04:22:24;;;;;;;3.57;0.70;;;;;;;1.83;100.00;99764.13;2073626;28;20021;-68
2021/12/02 04:23:24;;;;;;;5.18;1.75;;;;;;;1.85;100.00;99758.94;2073620;28;20022;-66
2021/12/02 04:24:25;;;;;;;2.87;1.00;;;;;;;1.87;100.00;99752.00;2073639;28;20280;-67
2021/12/02 04:25:26;;;;;;;7.15;1.10;;;;;;;1.85;100.00;99752.03;2073627;28;20038;-66
2021/12/02 04:26:27;;;;;;;3.72;0.90;;;;;;;1.84;100.00;99749.53;2073617;28;20032;-66
2021/12/02 04:27:27;;;;;;;3.97;1.00;;;;;;;1.82;100.00;99751.28;2073605;28;20037;-67
2021/12/02 04:28:27;;;;;;;4.57;1.00;;;;;;;1.77;100.00;99747.09;2073628;28;20025;-67
2021/12/02 04:29:28;;;;;;;2.97;0.80;;;;;;;1.74;100.00;99752.31;2073642;28;20097;-65
2021/12/02 04:30:28;;;;;;;4.73;1.20;;;;;;;1.71;100.00;99759.25;2073431;28;20026;-67
2021/12/02 04:31:28;;;;;;;4.40;1.00;;;;;;;1.67;100.00;99755.91;2073367;28;20034;-67
2021/12/02 04:32:28;;;;;;;5.30;0.77;;;;;;;1.65;100.00;99755.94;2073596;28;20590;-66
2021/12/02 04:33:30;;;;;;;2.13;0.83;;;;;;;1.64;100.00;99750.84;2073556;28;20030;-66
2021/12/02 04:34:30;;;;;;;5.50;1.02;;;;;;;1.62;100.00;99747.44;2073599;28;20029;-66
2021/12/02 04:35:30;;;;;;;4.53;0.57;;;;;;;1.61;100.00;99750.91;2073594;28;20502;-66
2021/12/02 04:36:31;;;;;;;3.13;0.77;;;;;;;1.63;100.00;99754.28;2073616;28;20490;-66
2021/12/02 04:37:31;;;;;;;5.63;0.90;;;;;;;1.65;100.00;99747.38;2064803;28;20030;-66
2021/12/02 04:38:31;;;;;;;3.43;0.63;;;;;;;1.66;100.00;99754.22;2064889;28;20121;-66
2021/12/02 04:39:32;;;;;;;6.47;0.87;;;;;;;1.66;100.00;99759.34;2073568;28;20030;-66
2021/12/02 04:40:32;;;;;;;4.53;1.07;;;;;;;1.65;100.00;99752.53;2064785;28;20435;-67
2021/12/02 04:41:33;;;;;;;3.03;0.70;;;;;;;1.66;100.00;99757.66;2064790;28;20117;-67
2021/12/02 04:42:33;;;;;;;5.28;0.70;;;;;;;1.67;100.00;99761.03;2073560;28;20053;-67
2021/12/02 04:43:34;;;;;;;4.73;2.10;;;;;;;1.67;100.00;99761.91;2073315;28;20340;-67
2021/12/02 04:44:34;;;;;;;2.77;0.80;;;;;;;1.67;100.00;99761.91;2073514;28;20338;-67
2021/12/02 04:45:34;;;;;;;2.40;0.70;;;;;;;1.69;100.00;99763.59;2073634;28;20084;-67
2021/12/02 04:46:35;;;;;;;1.27;0.50;;;;;;;1.73;100.00;99770.34;2073505;28;20037;-66
2021/12/02 04:47:36;;;;;;;3.67;0.70;;;;;;;1.75;100.00;99774.56;2073503;28;20025;-67
2021/12/02 04:48:36;;;;;;;2.67;0.70;;;;;;;1.78;100.00;99769.38;2073487;28;20032;-67
2021/12/02 04:49:36;;;;;;;3.10;1.13;;;;;;;1.79;100.00;99781.34;2073556;28;20033;-67
2021/12/02 04:50:37;;;;;;;7.87;1.00;;;;;;;1.80;100.00;99783.06;2073498;28;20030;-67
2021/12/02 04:51:37;;;;;;;3.20;0.60;;;;;;;1.82;100.00;99787.31;2073511;28;20026;-67
2021/12/02 04:52:38;;;;;;;4.40;0.63;;;;;;;1.82;100.00;99784.72;2073506;28;20411;-67
2021/12/02 04:53:39;;;;;;;4.20;0.80;;;;;;;1.81;100.00;99786.44;2073469;28;20025;-67
2021/12/02 04:54:40;;;;;;;6.20;0.70;;;;;;;1.82;100.00;99787.31;2064720;28;20110;-67
2021/12/02 04:55:41;;;;;;;6.10;1.10;;;;;;;1.80;100.00;99783.06;2064757;28;20038;-67
2021/12/02 04:56:41;;;;;;;1.98;0.57;;;;;;;1.80;100.00;99783.06;2073453;28;20391;-67
2021/12/02 04:57:41;;;;;;;4.63;0.83;;;;;;;1.80;100.00;99783.06;2073524;28;20021;-67
2021/12/02 04:58:41;;;;;;;2.80;0.70;;;;;;;1.79;100.00;99786.47;2073547;28;20032;-67
2021/12/02 04:59:42;;;;;;;2.93;0.97;;;;;;;1.79;100.00;99786.47;2073468;28;20025;-67
2021/12/02 05:00:42;;;;;;;3.67;0.80;;;;;;;1.78;100.00;99789.13;2073437;28;20152;-66
2021/12/02 05:01:42;;;;;;;3.03;0.80;;;;;;;1.76;100.00;99790.88;2073407;28;20030;-66
2021/12/02 05:02:44;;;;;;;4.03;0.70;;;;;;;1.72;100.00;99790.09;2073493;28;20061;-66
2021/12/02 05:03:44;;;;;;;5.75;0.80;;;;;;;1.69;100.00;99790.16;2073533;28;20017;-66
2021/12/02 05:04:44;;;;;;;3.77;0.70;;;;;;;1.65;100.00;99788.53;2073401;28;20022;-66